Time;durP1;ratioP1;P1;durP2;ratioP2;P2;SDS_P1;SDS_P2;PMS_P1;PMS_P2;Temp;Humidity;BMP_temperature;BMP_pressure;BME280_temperature;BME280_humidity;BME280_pressure;Samples;Min_cycle;Max_cycle;Signal;HPM_P1;HPM_P2
2022/02/13 00:01:55;;;;;;;16.25;7.97;;;7.10;91.10;;;;;;5033801;28;20060;-56
2022/02/13 00:04:22;;;;;;;19.33;8.70;;;7.10;91.10;;;;;;5039316;28;20052;-57
2022/02/13 00:06:53;;;;;;;16.30;7.75;;;7.10;91.20;;;;;;5033798;28;20071;-54
2022/02/13 00:09:19;;;;;;;18.38;7.47;;;7.10;91.30;;;;;;5035150;28;20041;-55
2022/02/13 00:11:46;;;;;;;15.20;8.77;;;7.10;91.10;;;;;;5033454;28;20037;-52
2022/02/13 00:14:13;;;;;;;15.57;7.85;;;7.10;91.10;;;;;;5033550;28;20072;-56
2022/02/13 00:16:39;;;;;;;15.10;7.57;;;7.10;91.00;;;;;;5034558;28;20044;-54
2022/02/13 00:19:07;;;;;;;17.58;8.57;;;7.20;91.20;;;;;;5033269;28;20108;-57
2022/02/13 00:21:50;;;;;;;17.80;8.63;;;7.20;91.20;;;;;;5033300;28;20041;-57
2022/02/13 00:24:17;;;;;;;17.10;8.68;;;7.30;91.00;;;;;;5033214;28;20045;-55
2022/02/13 00:26:43;;;;;;;17.23;7.78;;;7.20;91.00;;;;;;5038284;28;20064;-56
2022/02/13 00:29:12;;;;;;;17.25;7.72;;;7.30;91.10;;;;;;5031787;28;20037;-51
2022/02/13 00:31:39;;;;;;;15.63;7.50;;;7.30;91.20;;;;;;5036056;28;20138;-52
2022/02/13 00:34:06;;;;;;;15.85;7.93;;;7.30;91.20;;;;;;5033204;28;20034;-56
2022/02/13 00:36:34;;;;;;;15.20;8.27;;;7.30;91.10;;;;;;5034077;28;20045;-56
2022/02/13 00:39:01;;;;;;;14.82;7.80;;;7.30;91.20;;;;;;5033328;28;20508;-59
2022/02/13 11:08:47;;;;;;;12.50;3.20;;;8.20;90.00;;;;;;5069011;28;20387;-59
2022/02/13 11:11:34;;;;;;;13.15;3.78;;;8.20;90.40;;;;;;5030591;28;20046;-59
2022/02/13 11:14:00;;;;;;;14.57;3.78;;;8.30;90.20;;;;;;5033350;28;20047;-56
2022/02/13 11:16:28;;;;;;;14.23;4.72;;;8.30;90.10;;;;;;5030285;28;20042;-56
2022/02/13 11:18:57;;;;;;;15.48;4.97;;;8.40;90.10;;;;;;5030194;28;20037;-58
2022/02/13 11:21:25;;;;;;;17.10;4.07;;;8.40;89.80;;;;;;5030714;28;20045;-52
2022/02/13 11:23:52;;;;;;;17.02;3.65;;;8.50;89.50;;;;;;5032362;28;20041;-53
2022/02/13 11:26:19;;;;;;;10.55;3.72;;;8.50;89.30;;;;;;5030368;28;20068;-57
2022/02/13 11:28:46;;;;;;;10.52;3.63;;;8.60;89.00;;;;;;5030312;28;20073;-57
2022/02/13 11:31:13;;;;;;;15.88;3.45;;;8.60;89.10;;;;;;5029205;28;20141;-57
2022/02/13 11:33:39;;;;;;;11.93;3.28;;;8.70;89.20;;;;;;5047303;28;20041;-54
2022/02/13 11:36:06;;;;;;;10.45;3.35;;;8.80;88.50;;;;;;5049410;28;20045;-58
2022/02/13 11:38:33;;;;;;;12.52;3.80;;;8.80;89.10;;;;;;5049230;28;20488;-59
2022/02/13 11:40:59;;;;;;;10.80;3.03;;;8.80;89.10;;;;;;5049135;28;20496;-56
2022/02/13 11:43:26;;;;;;;14.10;3.95;;;8.90;88.50;;;;;;5049139;28;20477;-56
2022/02/13 11:45:53;;;;;;;16.88;3.55;;;8.90;88.10;;;;;;5048593;28;20411;-54
2022/02/13 11:48:20;;;;;;;15.10;3.58;;;8.90;88.10;;;;;;5049031;28;20041;-57
2022/02/13 11:50:46;;;;;;;12.55;3.25;;;8.90;88.00;;;;;;5049108;28;20045;-57
2022/02/13 11:53:13;;;;;;;15.25;3.65;;;8.90;88.40;;;;;;5049047;28;20492;-52
2022/02/13 11:55:40;;;;;;;11.13;3.90;;;8.90;88.20;;;;;;5049044;28;20131;-57
2022/02/13 11:58:12;;;;;;;12.02;3.30;;;8.90;87.90;;;;;;5048912;28;20060;-55
2022/02/13 12:00:39;;;;;;;9.30;2.90;;;8.90;87.90;;;;;;5048984;28;20037;-56
2022/02/13 12:03:08;;;;;;;11.73;3.42;;;8.90;87.90;;;;;;5048937;28;20128;-56
2022/02/13 12:05:37;;;;;;;11.80;3.47;;;8.90;88.30;;;;;;5048838;28;20045;-59
2022/02/13 12:08:04;;;;;;;11.45;3.33;;;9.00;88.00;;;;;;5047484;28;20045;-55
2022/02/13 12:10:31;;;;;;;17.38;4.38;;;9.00;88.10;;;;;;5048854;28;20503;-54
2022/02/13 12:12:58;;;;;;;18.25;3.55;;;9.10;87.90;;;;;;5048806;28;20033;-57
2022/02/13 12:15:25;;;;;;;14.40;3.35;;;9.10;87.60;;;;;;5048831;28;20045;-57
2022/02/13 12:17:52;;;;;;;13.65;3.42;;;9.20;87.10;;;;;;5048531;28;20111;-54
2022/02/13 12:20:19;;;;;;;17.42;4.70;;;9.30;87.60;;;;;;5034780;28;20518;-54
2022/02/13 12:22:46;;;;;;;13.30;3.55;;;9.30;86.90;;;;;;5026987;28;20038;-56
2022/02/13 12:25:13;;;;;;;15.65;4.20;;;9.40;86.90;;;;;;5035116;28;20107;-56
2022/02/13 12:27:41;;;;;;;13.57;3.47;;;9.40;86.80;;;;;;5034993;28;20088;-57
2022/02/13 12:30:08;;;;;;;21.45;5.45;;;9.40;86.40;;;;;;5035115;28;20507;-58
2022/02/13 12:32:35;;;;;;;11.23;3.30;;;9.50;86.30;;;;;;5034294;28;20393;-56
2022/02/13 12:35:01;;;;;;;12.35;3.17;;;9.50;86.30;;;;;;5034978;28;20041;-52
2022/02/13 12:37:28;;;;;;;14.75;3.25;;;9.50;86.00;;;;;;5035192;28;20095;-57
2022/02/13 12:39:55;;;;;;;11.10;3.60;;;9.60;86.10;;;;;;5035233;28;20136;-56
2022/02/13 12:42:21;;;;;;;12.57;3.90;;;9.70;85.90;;;;;;5035235;28;20046;-53
2022/02/13 12:44:48;;;;;;;13.55;3.70;;;9.70;85.60;;;;;;5034986;28;20119;-55
2022/02/13 12:47:15;;;;;;;10.68;3.20;;;9.90;84.80;;;;;;5033411;28;20076;-56
2022/02/13 12:49:42;;;;;;;12.80;3.50;;;10.00;84.60;;;;;;5034628;28;20509;-54
2022/02/13 12:52:09;;;;;;;11.02;3.45;;;10.00;84.10;;;;;;5034796;28;20046;-52
2022/02/13 12:54:36;;;;;;;15.25;4.07;;;10.00;83.50;;;;;;5034689;28;20052;-59
2022/02/13 12:57:02;;;;;;;9.60;3.67;;;10.00;83.90;;;;;;5034520;28;20099;-57
2022/02/13 12:59:29;;;;;;;16.17;4.55;;;10.00;83.70;;;;;;5034802;28;20495;-50
2022/02/13 13:01:57;;;;;;;14.25;3.88;;;10.00;83.80;;;;;;5034483;28;20061;-55
2022/02/13 13:04:24;;;;;;;17.38;4.15;;;9.90;83.90;;;;;;5034441;28;20045;-58
2022/02/13 13:06:51;;;;;;;16.27;4.82;;;9.90;83.60;;;;;;5032848;28;20037;-53
2022/02/13 13:09:18;;;;;;;15.25;3.67;;;9.80;83.50;;;;;;5033676;28;20033;-53
2022/02/13 13:11:45;;;;;;;15.48;4.03;;;9.80;84.10;;;;;;5034513;28;20046;-55
2022/02/13 13:14:14;;;;;;;18.08;3.90;;;9.80;85.10;;;;;;5033552;28;20484;-56
2022/02/13 13:16:40;;;;;;;11.50;3.97;;;9.80;86.40;;;;;;5034104;28;20049;-55
2022/02/13 13:19:10;;;;;;;14.48;3.72;;;9.80;88.40;;;;;;5034254;28;20140;-59
2022/02/13 13:21:46;;;;;;;18.52;6.05;;;9.60;89.10;;;;;;5033046;28;20045;-55
2022/02/13 13:24:26;;;;;;;14.90;5.00;;;9.50;90.10;;;;;;5033213;28;20051;-54
2022/02/13 13:26:54;;;;;;;22.15;9.00;;;9.40;90.50;;;;;;5022463;28;20108;-59
2022/02/13 13:29:20;;;;;;;17.58;9.90;;;9.30;91.20;;;;;;5013842;28;20497;-57
2022/02/13 13:31:47;;;;;;;16.90;7.65;;;9.20;91.10;;;;;;5014258;28;20048;-58
2022/02/13 13:34:14;;;;;;;11.10;5.00;;;9.10;91.40;;;;;;5015095;28;20481;-56
2022/02/13 13:36:41;;;;;;;11.77;4.63;;;9.00;91.80;;;;;;5031376;28;20045;-53
2022/02/13 13:39:08;;;;;;;16.98;4.97;;;8.90;91.90;;;;;;5034055;28;20041;-58
2022/02/13 13:41:35;;;;;;;11.75;4.75;;;8.90;92.30;;;;;;5027160;28;20038;-57
2022/02/13 13:44:01;;;;;;;17.50;5.13;;;8.90;92.40;;;;;;5024657;28;20044;-54
2022/02/13 13:46:28;;;;;;;14.32;4.50;;;8.80;92.00;;;;;;5025818;28;20042;-58
2022/02/13 13:48:55;;;;;;;19.05;5.60;;;8.80;92.50;;;;;;5026237;28;20489;-55
2022/02/13 13:51:22;;;;;;;16.33;4.85;;;8.70;92.70;;;;;;5027309;28;20044;-56
2022/02/13 13:53:50;;;;;;;13.18;4.95;;;8.70;92.80;;;;;;5033657;28;20041;-58
2022/02/13 13:56:17;;;;;;;16.55;5.10;;;8.70;93.30;;;;;;5033428;28;20477;-56
2022/02/13 13:58:44;;;;;;;11.43;4.88;;;8.70;93.00;;;;;;5032125;28;20049;-58
2022/02/13 14:01:13;;;;;;;16.33;5.57;;;8.60;93.20;;;;;;5032655;28;20562;-58
2022/02/13 14:03:42;;;;;;;13.75;5.35;;;8.60;93.40;;;;;;5033132;28;20049;-53
2022/02/13 14:06:08;;;;;;;13.85;5.22;;;8.60;93.90;;;;;;5032995;28;20054;-56
2022/02/13 14:08:35;;;;;;;10.68;5.10;;;8.60;93.70;;;;;;5032113;28;20095;-56
2022/02/13 14:11:02;;;;;;;19.35;5.95;;;8.60;93.60;;;;;;5028044;28;20037;-55
2022/02/13 14:13:29;;;;;;;16.25;5.85;;;8.60;93.70;;;;;;5024091;28;20045;-53
2022/02/13 14:15:55;;;;;;;18.60;5.70;;;8.60;93.80;;;;;;5033112;28;20037;-53
2022/02/13 14:18:22;;;;;;;15.65;5.88;;;8.60;94.10;;;;;;5033075;28;20053;-56
2022/02/13 14:20:49;;;;;;;14.80;5.45;;;8.60;94.00;;;;;;5025850;28;20038;-54
2022/02/13 14:23:16;;;;;;;13.85;6.15;;;8.50;94.20;;;;;;5014036;28;20092;-54
2022/02/13 14:25:48;;;;;;;15.48;5.95;;;8.50;94.00;;;;;;5014023;28;20049;-58
2022/02/13 14:28:14;;;;;;;16.67;6.22;;;8.50;94.20;;;;;;5013988;28;20511;-57
2022/02/13 14:30:41;;;;;;;11.25;6.07;;;8.50;94.50;;;;;;5013962;28;20506;-52
2022/02/13 14:33:08;;;;;;;15.55;6.43;;;8.50;94.70;;;;;;5018044;28;20136;-56
2022/02/13 14:35:35;;;;;;;14.18;6.50;;;8.50;94.50;;;;;;5021155;28;20068;-55
2022/02/13 14:38:01;;;;;;;16.73;6.30;;;8.50;94.60;;;;;;5013692;28;20041;-57
2022/02/13 14:40:28;;;;;;;11.25;5.57;;;8.40;94.80;;;;;;5029040;28;20088;-54
2022/02/13 14:42:57;;;;;;;11.45;6.45;;;8.40;94.80;;;;;;5030990;28;20502;-52
2022/02/13 14:45:24;;;;;;;14.93;6.15;;;8.40;95.00;;;;;;5032685;28;20038;-54
2022/02/13 14:47:50;;;;;;;16.20;6.30;;;8.30;95.30;;;;;;5030502;28;20115;-54
2022/02/13 14:50:18;;;;;;;18.25;6.15;;;8.30;95.30;;;;;;5032557;28;20041;-55
2022/02/13 14:52:44;;;;;;;16.50;5.93;;;8.30;95.30;;;;;;5031811;28;20037;-55
2022/02/13 14:55:11;;;;;;;14.02;5.85;;;8.30;95.30;;;;;;5032956;28;20485;-55
2022/02/13 14:57:38;;;;;;;13.93;6.47;;;8.30;95.50;;;;;;5030713;28;20033;-54
2022/02/13 15:00:05;;;;;;;15.90;6.55;;;8.30;95.50;;;;;;5032664;28;20503;-54
2022/02/13 15:02:32;;;;;;;13.52;6.53;;;8.40;95.40;;;;;;5032351;28;20473;-54
2022/02/13 15:04:59;;;;;;;18.15;6.25;;;8.30;95.50;;;;;;5032289;28;20424;-55
2022/02/13 15:07:26;;;;;;;14.35;6.10;;;8.40;95.60;;;;;;5032020;28;20115;-57
2022/02/13 15:09:53;;;;;;;16.45;6.10;;;8.30;96.00;;;;;;5031409;28;20136;-52
2022/02/13 15:12:20;;;;;;;15.32;6.43;;;8.30;96.00;;;;;;5032421;28;20551;-53
2022/02/13 15:14:47;;;;;;;19.38;5.47;;;8.30;95.70;;;;;;5032359;28;20488;-58
2022/02/13 15:17:15;;;;;;;15.70;6.00;;;8.30;95.80;;;;;;5032315;28;20121;-55
2022/02/13 15:19:41;;;;;;;15.02;5.80;;;8.30;95.90;;;;;;5031388;28;20121;-55
2022/02/13 15:22:09;;;;;;;12.82;5.80;;;8.40;96.10;;;;;;5033572;28;20073;-58
2022/02/13 15:24:35;;;;;;;12.27;5.70;;;8.40;96.00;;;;;;5025487;28;20049;-60
2022/02/13 15:27:02;;;;;;;14.27;6.13;;;8.30;96.20;;;;;;5013323;28;20041;-58
2022/02/13 15:29:29;;;;;;;13.07;5.25;;;8.40;96.30;;;;;;5013593;28;20045;-60
2022/02/13 15:31:56;;;;;;;11.80;5.88;;;8.40;96.20;;;;;;5013378;28;20048;-56
2022/02/13 15:34:22;;;;;;;15.07;6.10;;;8.40;96.30;;;;;;5012084;28;20134;-59
2022/02/13 15:36:50;;;;;;;11.30;5.53;;;8.40;96.20;;;;;;5013003;28;20042;-57
2022/02/13 15:39:17;;;;;;;15.05;5.72;;;8.40;96.40;;;;;;5021669;28;20042;-57
2022/02/13 15:41:43;;;;;;;12.60;5.18;;;8.40;96.20;;;;;;5032149;28;20049;-55
2022/02/13 15:44:11;;;;;;;10.43;5.65;;;8.40;96.40;;;;;;5032219;28;20053;-56
2022/02/13 15:46:39;;;;;;;15.77;5.68;;;8.40;96.30;;;;;;5031380;28;20432;-56
2022/02/13 15:49:06;;;;;;;11.88;5.22;;;8.40;96.40;;;;;;5031806;28;20121;-57
2022/02/13 15:51:33;;;;;;;15.30;5.88;;;8.40;96.60;;;;;;5032086;28;20370;-55
2022/02/13 15:53:59;;;;;;;15.43;5.43;;;8.40;96.70;;;;;;5032416;28;20400;-55
2022/02/13 15:56:26;;;;;;;12.75;4.88;;;8.40;96.60;;;;;;5016851;28;20038;-57
2022/02/13 15:58:53;;;;;;;12.95;5.88;;;8.40;96.60;;;;;;5016489;28;20053;-54
2022/02/13 16:01:20;;;;;;;13.65;6.00;;;8.40;96.90;;;;;;5016284;28;20077;-55
2022/02/13 16:03:47;;;;;;;11.23;5.93;;;8.40;96.90;;;;;;5035302;28;20052;-58
2022/02/13 16:06:13;;;;;;;15.38;5.80;;;8.40;96.70;;;;;;5035628;28;20038;-54
2022/02/13 16:08:40;;;;;;;16.45;5.95;;;8.40;96.60;;;;;;5033036;28;20064;-51
2022/02/13 16:11:07;;;;;;;13.43;6.15;;;8.40;96.60;;;;;;5036163;28;20536;-55
2022/02/13 16:13:34;;;;;;;14.68;6.25;;;8.40;96.80;;;;;;5027977;28;20053;-57
2022/02/13 16:16:01;;;;;;;12.52;5.70;;;8.40;96.80;;;;;;5028194;28;20037;-57
2022/02/13 16:18:29;;;;;;;13.20;5.90;;;8.40;96.80;;;;;;5032934;28;20045;-53
2022/02/13 16:20:56;;;;;;;12.50;5.97;;;8.40;96.90;;;;;;5021722;28;20037;-56
2022/02/13 16:26:09;;;;;;;12.15;5.85;;;8.40;97.00;;;;;;5029840;28;20060;-56
2022/02/13 16:28:36;;;;;;;13.60;5.75;;;8.40;97.10;;;;;;5034687;28;20045;-56
2022/02/13 16:31:03;;;;;;;12.00;5.50;;;8.40;97.10;;;;;;5034813;28;20044;-53
2022/02/13 16:33:31;;;;;;;14.63;6.68;;;8.40;97.10;;;;;;5034707;28;20041;-54
2022/02/13 16:35:58;;;;;;;13.35;6.15;;;8.40;97.00;;;;;;5034748;28;20040;-58
2022/02/13 16:38:24;;;;;;;14.27;6.70;;;8.40;97.20;;;;;;5033664;28;20041;-59
2022/02/13 16:40:51;;;;;;;13.82;6.30;;;8.50;97.20;;;;;;5034633;28;20505;-57
2022/02/13 16:43:18;;;;;;;10.38;5.68;;;8.50;97.20;;;;;;5030865;28;20072;-56
2022/02/13 16:45:44;;;;;;;13.95;5.85;;;8.50;97.00;;;;;;5015764;28;20041;-58
2022/02/13 16:48:11;;;;;;;14.43;5.97;;;8.50;97.20;;;;;;5015583;28;20119;-57
2022/02/13 16:50:38;;;;;;;14.90;5.90;;;8.50;97.20;;;;;;5014257;28;20046;-58
2022/02/13 16:53:05;;;;;;;13.75;6.00;;;8.50;97.00;;;;;;5015412;28;20038;-58
2022/02/13 16:55:32;;;;;;;10.25;5.65;;;8.50;97.10;;;;;;5015260;28;20111;-58
2022/02/13 16:57:59;;;;;;;12.05;5.97;;;8.60;97.20;;;;;;5015055;28;20129;-58
2022/02/13 17:00:26;;;;;;;15.43;6.10;;;8.60;97.20;;;;;;5015355;28;20033;-57
2022/02/13 17:02:55;;;;;;;11.43;5.43;;;8.60;97.30;;;;;;5014941;28;20038;-57
2022/02/13 17:05:22;;;;;;;10.88;5.50;;;8.60;97.40;;;;;;5019805;28;20053;-60
2022/02/13 17:07:49;;;;;;;10.65;5.10;;;8.60;97.60;;;;;;5022994;28;20095;-60
2022/02/13 17:10:16;;;;;;;10.60;5.20;;;8.60;97.40;;;;;;5017854;28;20045;-57
2022/02/13 17:12:48;;;;;;;11.85;5.60;;;8.60;97.40;;;;;;5025953;28;20048;-57
2022/02/13 17:15:14;;;;;;;15.77;5.63;;;8.60;97.40;;;;;;5025600;28;20045;-58
2022/02/13 17:17:41;;;;;;;14.23;5.03;;;8.60;97.40;;;;;;5018143;28;20050;-57
2022/02/13 17:20:09;;;;;;;12.18;5.57;;;8.60;97.60;;;;;;5031214;28;20041;-55
2022/02/13 17:22:36;;;;;;;12.50;5.40;;;8.60;97.60;;;;;;5008117;28;20038;-58
2022/02/13 17:25:03;;;;;;;14.30;5.80;;;8.70;97.50;;;;;;5059523;28;20082;-58
2022/02/13 17:27:30;;;;;;;11.93;5.15;;;8.70;97.60;;;;;;5072940;28;20040;-55
2022/02/13 17:29:57;;;;;;;11.13;4.80;;;8.70;97.50;;;;;;5053165;28;20037;-57
2022/02/13 17:32:24;;;;;;;9.77;5.60;;;8.70;97.40;;;;;;5053555;28;20037;-59
2022/02/13 17:34:50;;;;;;;11.00;5.30;;;8.70;97.70;;;;;;5052776;28;20427;-55
2022/02/13 17:37:17;;;;;;;10.40;5.45;;;8.70;97.60;;;;;;5057730;28;20055;-58
2022/02/13 17:39:44;;;;;;;11.32;5.32;;;8.80;97.60;;;;;;5068847;28;20037;-56
2022/02/13 17:42:12;;;;;;;10.02;4.63;;;8.80;97.70;;;;;;5053548;28;20053;-55
2022/02/13 17:44:40;;;;;;;11.02;4.90;;;8.80;97.60;;;;;;5052865;28;20128;-56
2022/02/13 17:47:06;;;;;;;9.75;4.80;;;8.80;97.70;;;;;;5060027;28;20069;-55
2022/02/13 17:49:33;;;;;;;9.98;4.75;;;8.80;97.70;;;;;;5053139;28;20041;-54
2022/02/13 17:52:00;;;;;;;10.43;4.68;;;8.80;97.80;;;;;;5053429;28;20130;-53
2022/02/13 17:54:27;;;;;;;8.77;4.50;;;8.80;97.90;;;;;;5051720;28;20087;-57
2022/02/13 17:56:54;;;;;;;11.70;4.72;;;8.80;97.90;;;;;;5052775;28;20067;-54
2022/02/13 17:59:20;;;;;;;8.90;4.32;;;8.80;97.90;;;;;;5053119;28;20076;-53
2022/02/13 18:01:47;;;;;;;10.23;4.53;;;8.90;98.00;;;;;;5071836;28;20056;-53
2022/02/13 18:04:14;;;;;;;8.20;4.22;;;8.90;98.00;;;;;;5071905;28;20052;-52
2022/02/13 18:06:46;;;;;;;10.43;4.35;;;8.90;97.90;;;;;;5068154;28;20147;-57
2022/02/13 18:09:13;;;;;;;9.25;4.10;;;8.90;97.90;;;;;;5072045;28;20041;-56
2022/02/13 18:11:39;;;;;;;7.57;4.10;;;8.90;98.00;;;;;;5072828;28;20057;-58
2022/02/13 18:14:07;;;;;;;11.93;4.50;;;8.90;97.90;;;;;;5073057;28;20040;-58
2022/02/13 18:16:33;;;;;;;8.05;4.45;;;8.90;97.90;;;;;;5072506;28;20443;-58
2022/02/13 18:19:00;;;;;;;10.73;4.70;;;8.90;98.00;;;;;;5070722;28;20047;-59
2022/02/13 18:21:27;;;;;;;9.88;4.53;;;8.90;98.20;;;;;;5072890;28;20044;-56
2022/02/13 18:23:55;;;;;;;12.27;4.85;;;9.00;98.00;;;;;;5072874;28;20041;-52
2022/02/13 18:26:22;;;;;;;9.40;4.78;;;9.00;97.90;;;;;;5071861;28;20051;-55
2022/02/13 18:28:48;;;;;;;10.60;4.85;;;9.00;97.90;;;;;;5060671;28;20506;-56
2022/02/13 18:31:15;;;;;;;10.52;5.82;;;9.00;97.90;;;;;;5053708;28;20033;-56
2022/02/13 18:33:42;;;;;;;12.98;5.90;;;9.00;97.90;;;;;;5064269;28;20067;-52
2022/02/13 18:36:09;;;;;;;8.88;4.32;;;9.00;98.00;;;;;;5072603;28;20122;-58
2022/02/13 18:38:35;;;;;;;11.52;5.30;;;9.00;98.00;;;;;;5071647;28;20036;-56
2022/02/13 18:41:02;;;;;;;16.33;8.25;;;9.00;98.00;;;;;;5072558;28;20063;-56
2022/02/13 18:43:29;;;;;;;17.48;8.80;;;9.00;98.00;;;;;;5072578;28;20069;-56
2022/02/13 18:45:56;;;;;;;22.02;9.32;;;9.00;97.90;;;;;;5071745;28;20048;-58
2022/02/13 18:48:22;;;;;;;24.38;11.93;;;9.10;98.10;;;;;;5061401;28;20047;-57
2022/02/13 18:50:51;;;;;;;29.08;16.35;;;9.00;98.30;;;;;;5052148;28;20044;-56
2022/02/13 18:53:18;;;;;;;19.77;8.52;;;9.10;98.00;;;;;;5058979;28;20037;-58
2022/02/13 18:55:45;;;;;;;23.08;12.73;;;9.10;98.20;;;;;;5072516;28;20531;-56
2022/02/13 18:58:11;;;;;;;16.50;9.65;;;9.10;97.90;;;;;;5072417;28;20405;-57
2022/02/13 19:00:38;;;;;;;17.02;7.78;;;9.10;98.10;;;;;;5072301;28;20040;-61
2022/02/13 19:03:05;;;;;;;24.50;10.15;;;9.10;98.00;;;;;;5072382;28;20040;-57
2022/02/13 19:05:32;;;;;;;16.02;7.25;;;9.10;98.00;;;;;;5072392;28;20047;-56
2022/02/13 19:07:59;;;;;;;17.13;8.77;;;9.10;98.10;;;;;;5071253;28;20068;-57
2022/02/13 19:10:25;;;;;;;23.45;10.43;;;9.10;98.00;;;;;;5071014;28;20052;-53
2022/02/13 19:12:58;;;;;;;16.77;8.48;;;9.20;98.00;;;;;;5071860;28;20044;-57
2022/02/13 19:15:26;;;;;;;17.67;8.90;;;9.20;97.90;;;;;;5072437;28;20040;-59
2022/02/13 19:17:52;;;;;;;11.45;6.68;;;9.20;98.00;;;;;;5072424;28;20059;-55
2022/02/13 19:20:25;;;;;;;12.23;7.15;;;9.20;97.90;;;;;;5072588;28;20044;-52
2022/02/13 19:22:52;;;;;;;21.58;11.88;;;9.20;97.90;;;;;;5071421;28;20143;-58
2022/02/13 19:25:19;;;;;;;19.90;10.20;;;9.20;97.90;;;;;;5072445;28;20040;-60
2022/02/13 19:30:34;;;;;;;31.95;15.43;;;9.30;97.90;;;;;;5074758;28;20102;-56
2022/02/13 19:33:01;;;;;;;12.73;7.50;;;9.30;97.80;;;;;;5060776;28;20374;-51
2022/02/13 19:35:32;;;;;;;20.05;10.77;;;9.30;97.90;;;;;;5054431;28;20045;-56
2022/02/13 19:37:59;;;;;;;21.13;10.63;;;9.30;97.90;;;;;;5055516;28;20503;-54
2022/02/13 19:40:26;;;;;;;20.98;11.02;;;9.30;97.90;;;;;;5055311;28;20043;-54
2022/02/13 19:42:58;;;;;;;14.68;7.85;;;9.30;98.00;;;;;;5065126;28;20064;-52
2022/02/13 19:45:24;;;;;;;15.27;7.13;;;9.30;97.90;;;;;;5060273;28;20530;-55
2022/02/13 19:47:51;;;;;;;12.98;7.63;;;9.30;97.90;;;;;;5060248;28;20071;-54
2022/02/13 19:50:21;;;;;;;14.90;7.38;;;9.30;97.90;;;;;;5070233;28;20581;-57
2022/02/13 19:52:48;;;;;;;15.20;8.43;;;9.30;97.80;;;;;;5067763;28;20115;-56
2022/02/13 19:55:15;;;;;;;16.35;6.32;;;9.30;98.00;;;;;;5072500;28;20033;-57
2022/02/13 19:57:42;;;;;;;13.60;6.93;;;9.40;97.70;;;;;;5073354;28;20083;-53
2022/02/13 20:00:15;;;;;;;14.43;6.13;;;9.40;97.80;;;;;;5074311;28;20514;-56
2022/02/13 20:02:42;;;;;;;17.55;9.48;;;9.40;97.80;;;;;;5073370;28;20041;-57
2022/02/13 20:05:08;;;;;;;13.52;6.80;;;9.40;97.70;;;;;;5074344;28;20052;-54
2022/02/13 20:07:36;;;;;;;12.98;6.53;;;9.40;97.70;;;;;;5074868;28;20499;-57
2022/02/13 20:10:03;;;;;;;9.32;5.00;;;9.40;97.70;;;;;;5074281;28;20040;-58
2022/02/13 20:12:30;;;;;;;12.52;5.00;;;9.40;97.60;;;;;;5068162;28;20127;-59
2022/02/13 20:14:58;;;;;;;10.27;5.43;;;9.40;97.80;;;;;;5055909;28;20048;-57
2022/02/13 20:17:26;;;;;;;10.45;4.88;;;9.40;97.80;;;;;;5065182;28;20037;-55
2022/02/13 20:19:54;;;;;;;9.48;5.20;;;9.40;97.90;;;;;;5073669;28;20056;-57
2022/02/13 20:22:26;;;;;;;10.55;4.10;;;9.40;97.80;;;;;;5074706;28;20371;-55
2022/02/13 20:24:57;;;;;;;8.55;5.07;;;9.40;97.70;;;;;;5074939;28;20114;-55
2022/02/13 20:27:24;;;;;;;11.00;4.90;;;9.40;97.80;;;;;;5073223;28;20037;-53
2022/02/13 20:29:52;;;;;;;11.10;4.18;;;9.50;97.90;;;;;;5063427;28;20148;-55
2022/02/13 20:32:20;;;;;;;10.82;4.28;;;9.50;97.90;;;;;;5056715;28;20488;-53
2022/02/13 20:34:49;;;;;;;10.48;4.78;;;9.50;98.00;;;;;;5054532;28;20154;-56
2022/02/13 20:37:16;;;;;;;10.45;4.57;;;9.50;98.10;;;;;;5055985;28;20475;-56
2022/02/13 20:39:44;;;;;;;8.68;3.60;;;9.50;98.10;;;;;;5058809;28;20056;-55
2022/02/13 20:42:11;;;;;;;9.18;3.50;;;9.50;98.00;;;;;;5054629;28;20061;-56
2022/02/13 20:44:39;;;;;;;8.43;3.72;;;9.50;98.00;;;;;;5058329;28;20073;-59
2022/02/13 20:47:06;;;;;;;10.10;3.53;;;9.50;97.90;;;;;;5054597;28;20037;-55
2022/02/13 20:49:33;;;;;;;10.52;4.82;;;9.50;97.80;;;;;;5054144;28;20049;-56
2022/02/13 20:51:59;;;;;;;10.52;3.70;;;9.50;97.80;;;;;;5054216;28;20092;-65
2022/02/13 20:54:26;;;;;;;8.77;3.22;;;9.60;97.80;;;;;;5054807;28;20037;-58
2022/02/13 20:56:53;;;;;;;11.43;3.97;;;9.60;97.80;;;;;;5054736;28;20449;-57
2022/02/13 20:59:21;;;;;;;6.13;2.90;;;9.60;97.80;;;;;;5055342;28;20400;-57
2022/02/13 21:01:48;;;;;;;8.85;3.40;;;9.60;97.80;;;;;;5054281;28;20044;-58
2022/02/13 21:04:15;;;;;;;8.52;3.20;;;9.60;97.90;;;;;;5064891;28;20109;-61
2022/02/13 21:06:46;;;;;;;9.57;3.08;;;9.60;97.80;;;;;;5073465;28;20045;-55
2022/02/13 21:09:12;;;;;;;7.47;3.15;;;9.60;97.90;;;;;;5073454;28;20051;-58
2022/02/13 21:11:39;;;;;;;10.40;3.30;;;9.60;97.90;;;;;;5055687;28;20140;-59
2022/02/13 21:14:09;;;;;;;8.38;3.47;;;9.60;97.90;;;;;;5068772;28;20046;-55
2022/02/13 21:16:36;;;;;;;9.48;3.15;;;9.60;97.90;;;;;;5065039;28;20440;-58
2022/02/13 21:19:04;;;;;;;9.40;2.58;;;9.60;97.80;;;;;;5054951;28;20049;-54
2022/02/13 21:21:30;;;;;;;6.45;2.90;;;9.60;97.90;;;;;;5054796;28;20422;-58
2022/02/13 21:23:57;;;;;;;6.15;2.45;;;9.60;98.00;;;;;;5053361;28;20037;-58
2022/02/13 21:26:24;;;;;;;6.85;2.65;;;9.60;98.00;;;;;;5052016;28;20508;-54
2022/02/13 21:29:11;;;;;;;6.85;2.70;;;9.60;98.00;;;;;;5069175;28;20116;-54
2022/02/13 21:31:38;;;;;;;5.00;2.15;;;9.60;98.00;;;;;;5072978;28;20426;-60
2022/02/13 21:34:05;;;;;;;7.43;2.40;;;9.60;98.00;;;;;;5071364;28;20387;-56
2022/02/13 21:36:32;;;;;;;7.03;2.38;;;9.60;98.00;;;;;;5071359;28;20043;-57
2022/02/13 21:38:59;;;;;;;6.93;2.25;;;9.60;98.00;;;;;;5072535;28;20132;-61
2022/02/13 21:41:35;;;;;;;8.63;1.90;;;9.60;98.10;;;;;;5072433;28;20051;-57
2022/02/13 21:44:01;;;;;;;8.73;2.38;;;9.60;98.00;;;;;;5072645;28;20044;-60
2022/02/13 21:46:29;;;;;;;7.53;2.35;;;9.60;98.10;;;;;;5070936;28;20484;-59
2022/02/13 21:48:56;;;;;;;5.32;2.00;;;9.60;98.10;;;;;;5064880;28;20045;-61
2022/02/13 21:51:24;;;;;;;4.40;1.73;;;9.60;98.00;;;;;;5056841;28;20041;-61
2022/02/13 21:53:51;;;;;;;3.72;1.60;;;9.60;98.10;;;;;;5053023;28;20064;-60
2022/02/13 21:56:21;;;;;;;5.70;1.42;;;9.60;98.00;;;;;;5054060;28;20468;-59
2022/02/13 21:58:48;;;;;;;4.25;1.70;;;9.70;98.10;;;;;;5065314;28;20044;-57
2022/02/13 22:01:15;;;;;;;3.90;1.60;;;9.70;98.10;;;;;;5073033;28;20051;-60
2022/02/13 22:03:44;;;;;;;5.85;1.95;;;9.70;98.10;;;;;;5073483;28;20043;-61
2022/02/13 22:06:11;;;;;;;6.47;1.65;;;9.60;98.10;;;;;;5072759;28;20490;-60
2022/02/13 22:08:40;;;;;;;5.65;2.28;;;9.70;98.30;;;;;;5072059;28;20427;-60
2022/02/13 22:11:10;;;;;;;5.95;2.38;;;9.70;98.10;;;;;;5066885;28;20056;-59
2022/02/13 22:13:37;;;;;;;9.13;3.25;;;9.70;98.20;;;;;;5071536;28;20036;-59
2022/02/13 22:16:04;;;;;;;6.43;2.63;;;9.70;98.20;;;;;;5071744;28;20492;-57
2022/02/13 22:18:30;;;;;;;7.28;2.30;;;9.70;98.20;;;;;;5072234;28;20086;-58
2022/02/13 22:20:57;;;;;;;4.70;1.55;;;9.70;98.30;;;;;;5072870;28;20068;-60
2022/02/13 22:23:24;;;;;;;5.53;1.67;;;9.70;98.20;;;;;;5072317;28;20487;-59
2022/02/13 22:25:51;;;;;;;4.57;1.35;;;9.70;98.20;;;;;;5072931;28;20135;-58
2022/02/13 22:28:18;;;;;;;3.10;1.48;;;9.70;98.20;;;;;;5072900;28;20067;-57
2022/02/13 22:30:45;;;;;;;4.07;1.92;;;9.70;98.20;;;;;;5061547;28;20427;-55
2022/02/13 22:33:11;;;;;;;3.00;1.55;;;9.70;98.30;;;;;;5053673;28;20072;-55
2022/02/13 22:35:38;;;;;;;7.82;1.70;;;9.70;98.30;;;;;;5058309;28;20060;-56
2022/02/13 22:38:06;;;;;;;4.82;1.50;;;9.70;98.30;;;;;;5055193;28;20055;-55
2022/02/13 22:40:33;;;;;;;4.53;1.80;;;9.70;98.40;;;;;;5053644;28;20057;-57
2022/02/13 22:43:00;;;;;;;5.13;1.92;;;9.70;98.30;;;;;;5053562;28;20037;-54
2022/02/13 22:45:27;;;;;;;4.47;1.90;;;9.70;98.30;;;;;;5053621;28;20045;-58
2022/02/13 22:47:55;;;;;;;6.07;1.77;;;9.70;98.30;;;;;;5058714;28;20068;-53
2022/02/13 22:50:21;;;;;;;5.75;1.98;;;9.70;98.30;;;;;;5072591;28;20040;-57
2022/02/13 22:52:49;;;;;;;5.90;1.75;;;9.80;98.30;;;;;;5072711;28;20040;-56
2022/02/13 22:55:16;;;;;;;5.55;1.75;;;9.80;98.30;;;;;;5071841;28;20068;-59
2022/02/13 22:57:43;;;;;;;5.07;1.60;;;9.80;98.40;;;;;;5072375;28;20082;-59
2022/02/13 23:00:09;;;;;;;4.00;1.85;;;9.80;98.30;;;;;;5072388;28;20040;-57
2022/02/13 23:02:36;;;;;;;9.07;1.92;;;9.70;98.10;;;;;;5071566;28;20044;-53
2022/02/13 23:05:05;;;;;;;4.43;1.60;;;9.70;98.10;;;;;;5072371;28;20603;-57
2022/02/13 23:13:04;;;;;;;6.18;1.95;;;9.80;98.20;;;;;;5072350;28;20059;-56
2022/02/13 23:15:35;;;;;;;5.05;1.80;;;9.80;98.30;;;;;;5072338;28;20524;-59
2022/02/13 23:18:01;;;;;;;5.45;1.88;;;9.80;98.20;;;;;;5072224;28;20056;-56
2022/02/13 23:20:28;;;;;;;7.68;1.75;;;9.80;98.10;;;;;;5071397;28;20108;-58
2022/02/13 23:22:56;;;;;;;7.35;1.70;;;9.70;98.10;;;;;;5070946;28;20127;-58
2022/02/13 23:25:23;;;;;;;6.03;1.90;;;9.80;98.10;;;;;;5071261;28;20090;-56
2022/02/13 23:27:51;;;;;;;5.35;1.50;;;9.80;98.20;;;;;;5072271;28;20106;-58